Time;durP1;ratioP1;P1;durP2;ratioP2;P2;SDS_P1;SDS_P2;PMS_P1;PMS_P2;Temp;Humidity;BMP_temperature;BMP_pressure;BME280_temperature;BME280_humidity;BME280_pressure;Samples;Min_cycle;Max_cycle;Signal;HPM_P1;HPM_P2
2022/01/16 00:04:40;;;;;;;;;61.00;45.25;;;;;;;;5079784;27;45420;-64
2022/01/16 00:07:06;;;;;;;;;71.00;54.75;;;;;;;;5079617;27;45379;-66
2022/01/16 00:09:32;;;;;;;;;67.25;54.00;;;;;;;;5090119;27;45448;-64
2022/01/16 00:12:00;;;;;;;;;68.25;55.25;;;;;;;;5081408;27;45412;-65
2022/01/16 00:14:29;;;;;;;;;64.00;50.50;;;;;;;;5083755;27;45486;-65
2022/01/16 00:16:55;;;;;;;;;64.50;45.50;;;;;;;;5078342;27;45645;-64
2022/01/16 00:19:20;;;;;;;;;64.75;52.50;;;;;;;;5081314;27;45653;-65
2022/01/16 00:21:45;;;;;;;;;62.00;51.25;;;;;;;;5086769;27;45420;-64
2022/01/16 00:24:11;;;;;;;;;68.75;53.00;;;;;;;;5081411;27;45520;-64
2022/01/16 00:26:36;;;;;;;;;72.50;56.00;;;;;;;;5084135;27;45570;-64
2022/01/16 00:29:02;;;;;;;;;72.25;56.50;;;;;;;;5076103;27;45553;-64
2022/01/16 00:31:28;;;;;;;;;66.75;52.75;;;;;;;;5081687;27;45464;-65
2022/01/16 00:33:53;;;;;;;;;62.50;48.50;;;;;;;;5085493;27;45676;-64
2022/01/16 00:36:19;;;;;;;;;71.25;52.75;;;;;;;;5082091;27;46309;-64
2022/01/16 00:38:48;;;;;;;;;62.75;47.50;;;;;;;;5084857;27;45520;-64
2022/01/16 00:41:16;;;;;;;;;63.50;53.00;;;;;;;;5075041;27;45492;-65
2022/01/16 00:43:42;;;;;;;;;59.00;49.25;;;;;;;;5084252;27;45458;-65
2022/01/16 00:46:08;;;;;;;;;59.75;45.50;;;;;;;;5084150;27;45462;-63
2022/01/16 00:48:33;;;;;;;;;73.25;56.75;;;;;;;;5078034;27;45824;-64
2022/01/16 00:50:58;;;;;;;;;66.00;51.75;;;;;;;;5085052;27;45604;-66
2022/01/16 00:53:24;;;;;;;;;68.25;55.75;;;;;;;;5074653;27;45493;-65
2022/01/16 00:55:49;;;;;;;;;71.25;57.25;;;;;;;;5079088;27;46209;-66
2022/01/16 00:58:14;;;;;;;;;63.75;48.75;;;;;;;;5067105;27;45840;-64
2022/01/16 01:00:39;;;;;;;;;58.25;48.25;;;;;;;;5078404;27;45443;-65
2022/01/16 01:03:08;;;;;;;;;68.25;53.25;;;;;;;;5091119;27;45487;-65
2022/01/16 01:05:34;;;;;;;;;62.00;50.75;;;;;;;;5075467;27;45722;-65
2022/01/16 01:08:00;;;;;;;;;59.00;50.50;;;;;;;;5082128;27;45210;-66
2022/01/16 01:10:30;;;;;;;;;63.50;49.00;;;;;;;;5080641;27;45925;-65
2022/01/16 01:13:07;;;;;;;;;64.50;51.25;;;;;;;;5077045;27;45471;-65
2022/01/16 01:15:41;;;;;;;;;71.25;54.00;;;;;;;;5067528;27;47558;-64
2022/01/16 01:18:06;;;;;;;;;57.75;47.50;;;;;;;;5069284;27;45515;-64
2022/01/16 01:20:31;;;;;;;;;66.00;51.25;;;;;;;;5067932;27;45567;-64
2022/01/16 01:22:56;;;;;;;;;69.50;50.75;;;;;;;;5069753;27;45484;-66
2022/01/16 01:25:22;;;;;;;;;64.25;53.00;;;;;;;;5065952;27;45779;-65
2022/01/16 01:27:48;;;;;;;;;68.25;56.00;;;;;;;;5070829;27;45594;-64
2022/01/16 01:30:17;;;;;;;;;70.00;55.25;;;;;;;;5070107;27;46902;-65
2022/01/16 01:32:44;;;;;;;;;65.00;51.00;;;;;;;;5071893;27;45525;-65
2022/01/16 01:35:10;;;;;;;;;67.75;53.25;;;;;;;;5069550;27;46474;-64
2022/01/16 01:37:35;;;;;;;;;63.50;52.00;;;;;;;;5071308;27;46018;-64
2022/01/16 01:40:03;;;;;;;;;65.75;50.75;;;;;;;;5071280;27;45459;-64
2022/01/16 01:42:33;;;;;;;;;71.50;51.50;;;;;;;;5078150;27;45466;-64
2022/01/16 01:53:13;;;;;;;;;61.00;51.00;;;;;;;;5073894;27;45573;-65
2022/01/16 01:55:40;;;;;;;;;64.00;52.50;;;;;;;;5077174;27;46515;-64
2022/01/16 01:58:05;;;;;;;;;66.75;53.00;;;;;;;;5062291;28;45508;-65
2022/01/16 02:00:31;;;;;;;;;62.25;50.25;;;;;;;;5067662;27;45468;-66
2022/01/16 02:03:13;;;;;;;;;63.50;52.25;;;;;;;;5045249;28;45449;-65
2022/01/16 02:05:40;;;;;;;;;64.25;51.50;;;;;;;;5061902;28;45837;-63
2022/01/16 02:08:06;;;;;;;;;64.50;51.50;;;;;;;;5064136;28;45894;-65
2022/01/16 02:10:32;;;;;;;;;70.50;52.50;;;;;;;;5068310;28;45546;-64
2022/01/16 02:13:02;;;;;;;;;67.75;49.25;;;;;;;;5071828;27;45484;-64
2022/01/16 02:15:50;;;;;;;;;66.50;50.50;;;;;;;;5067922;28;48604;-64
2022/01/16 02:31:58;;;;;;;;;62.50;50.50;;;;;;;;5071801;27;45324;-65
2022/01/16 02:34:43;;;;;;;;;62.50;48.25;;;;;;;;5071761;28;45473;-66
2022/01/16 02:37:12;;;;;;;;;67.25;53.50;;;;;;;;5072230;27;46366;-64
2022/01/16 02:39:40;;;;;;;;;63.50;50.75;;;;;;;;5054819;28;45547;-65
2022/01/16 02:42:07;;;;;;;;;58.75;46.00;;;;;;;;5069882;28;45341;-64
2022/01/16 02:44:44;;;;;;;;;73.75;52.25;;;;;;;;5071744;28;45527;-64
2022/01/16 02:47:10;;;;;;;;;64.50;51.50;;;;;;;;5069939;28;46989;-63
2022/01/16 02:49:35;;;;;;;;;58.00;46.00;;;;;;;;5068505;28;46278;-66
2022/01/16 02:52:03;;;;;;;;;61.50;50.25;;;;;;;;5071195;27;45383;-65
2022/01/16 02:54:31;;;;;;;;;68.00;53.25;;;;;;;;5071588;28;45421;-64
2022/01/16 02:56:56;;;;;;;;;68.00;51.00;;;;;;;;5073662;27;45702;-64
2022/01/16 02:59:22;;;;;;;;;66.50;53.75;;;;;;;;5071447;28;45380;-64
2022/01/16 03:01:47;;;;;;;;;69.50;54.75;;;;;;;;5067897;27;45500;-64
2022/01/16 03:04:12;;;;;;;;;67.75;53.00;;;;;;;;5062240;28;45732;-65
2022/01/16 03:06:38;;;;;;;;;70.00;53.25;;;;;;;;5073009;28;46365;-65
2022/01/16 03:09:06;;;;;;;;;63.75;48.75;;;;;;;;5076929;27;45534;-64
2022/01/16 03:11:36;;;;;;;;;66.00;54.00;;;;;;;;5074800;27;45294;-63
2022/01/16 03:14:05;;;;;;;;;69.75;54.50;;;;;;;;5074971;27;45432;-65
2022/01/16 03:16:30;;;;;;;;;62.50;48.75;;;;;;;;5073724;27;45675;-65
2022/01/16 03:21:55;;;;;;;;;59.50;47.00;;;;;;;;5057728;28;45360;-65
2022/01/16 03:24:39;;;;;;;;;65.00;49.50;;;;;;;;5074205;28;45613;-64
2022/01/16 03:27:06;;;;;;;;;70.75;55.50;;;;;;;;5070869;28;47071;-65
2022/01/16 03:29:32;;;;;;;;;73.25;56.25;;;;;;;;5073323;27;45438;-66
2022/01/16 03:31:58;;;;;;;;;70.25;56.00;;;;;;;;5074509;27;45518;-66
2022/01/16 03:34:23;;;;;;;;;64.00;45.00;;;;;;;;5074580;28;45509;-65
2022/01/16 03:36:49;;;;;;;;;69.00;54.25;;;;;;;;5072223;28;47701;-65
2022/01/16 03:39:14;;;;;;;;;69.50;56.00;;;;;;;;5074382;28;45452;-64
2022/01/16 03:41:39;;;;;;;;;70.75;54.50;;;;;;;;5074821;28;45506;-64
2022/01/16 03:44:05;;;;;;;;;71.00;53.50;;;;;;;;5074508;27;45434;-64
2022/01/16 03:46:34;;;;;;;;;74.75;54.50;;;;;;;;5071682;28;47697;-64
2022/01/16 03:49:04;;;;;;;;;64.25;52.00;;;;;;;;5072876;27;45500;-63
2022/01/16 03:51:29;;;;;;;;;71.00;54.75;;;;;;;;5072035;28;45614;-65
2022/01/16 03:53:54;;;;;;;;;68.50;54.75;;;;;;;;5075617;28;45510;-64
2022/01/16 03:56:20;;;;;;;;;74.25;55.00;;;;;;;;5074204;27;45459;-64
2022/01/16 03:58:45;;;;;;;;;68.25;55.00;;;;;;;;5074451;28;45338;-65
2022/01/16 04:01:10;;;;;;;;;69.25;52.00;;;;;;;;5071668;27;45471;-63
2022/01/16 04:03:35;;;;;;;;;67.25;53.75;;;;;;;;5073561;27;45474;-65
2022/01/16 04:06:01;;;;;;;;;72.50;55.25;;;;;;;;5064787;28;46271;-64
2022/01/16 04:08:27;;;;;;;;;68.50;52.50;;;;;;;;5072909;28;45420;-64
2022/01/16 04:10:52;;;;;;;;;68.75;52.50;;;;;;;;5072665;27;45485;-64
2022/01/16 04:13:20;;;;;;;;;71.25;54.50;;;;;;;;5074060;27;45374;-64
2022/01/16 04:15:45;;;;;;;;;70.00;55.50;;;;;;;;5074045;27;46388;-65
2022/01/16 04:18:10;;;;;;;;;67.00;53.00;;;;;;;;5075883;28;45145;-65
2022/01/16 04:20:35;;;;;;;;;61.50;47.75;;;;;;;;5074557;28;45490;-64
2022/01/16 04:23:01;;;;;;;;;66.75;52.25;;;;;;;;5073984;27;45401;-64
2022/01/16 04:25:26;;;;;;;;;62.00;47.50;;;;;;;;5073642;27;45735;-64
2022/01/16 04:27:51;;;;;;;;;65.50;49.00;;;;;;;;5074025;28;45374;-65
2022/01/16 04:30:17;;;;;;;;;63.75;48.75;;;;;;;;5074319;28;45320;-64
2022/01/16 04:32:42;;;;;;;;;68.50;52.00;;;;;;;;5051640;28;45535;-66
2022/01/16 04:35:07;;;;;;;;;73.50;56.50;;;;;;;;5063224;28;46671;-65
2022/01/16 04:37:33;;;;;;;;;67.75;52.00;;;;;;;;5063664;28;45538;-65
2022/01/16 04:40:03;;;;;;;;;68.50;51.50;;;;;;;;5072185;28;45368;-65
2022/01/16 04:45:12;;;;;;;;;66.50;54.25;;;;;;;;5071176;27;45378;-65
2022/01/16 04:47:37;;;;;;;;;64.50;47.50;;;;;;;;5074572;28;45423;-64
2022/01/16 04:50:03;;;;;;;;;59.75;50.25;;;;;;;;5070005;28;45347;-64
2022/01/16 04:52:28;;;;;;;;;61.25;50.25;;;;;;;;5070551;28;45487;-64
2022/01/16 04:54:54;;;;;;;;;54.25;46.25;;;;;;;;5074357;27;45955;-64
2022/01/16 04:57:19;;;;;;;;;60.75;50.75;;;;;;;;5070638;27;45744;-64
2022/01/16 04:59:45;;;;;;;;;59.00;46.25;;;;;;;;5073166;27;45331;-64
2022/01/16 05:02:10;;;;;;;;;60.25;47.50;;;;;;;;5071839;28;45245;-64
2022/01/16 05:04:36;;;;;;;;;64.75;51.00;;;;;;;;5070032;28;47770;-64
2022/01/16 05:07:01;;;;;;;;;58.75;46.25;;;;;;;;5066738;27;45568;-63
2022/01/16 05:09:26;;;;;;;;;42.50;36.50;;;;;;;;5056154;28;45409;-64
2022/01/16 05:11:56;;;;;;;;;42.25;38.75;;;;;;;;5060972;28;45461;-63
2022/01/16 05:17:05;;;;;;;;;61.00;43.50;;;;;;;;5070567;27;45817;-63
2022/01/16 05:19:30;;;;;;;;;48.00;40.50;;;;;;;;5069875;28;45554;-65
2022/01/16 05:21:56;;;;;;;;;57.00;43.25;;;;;;;;5073027;27;45425;-65
2022/01/16 05:24:23;;;;;;;;;56.00;42.00;;;;;;;;5071637;28;47715;-64
2022/01/16 05:26:49;;;;;;;;;47.75;41.75;;;;;;;;5071644;28;45440;-63
2022/01/16 05:29:14;;;;;;;;;53.75;43.75;;;;;;;;5072193;27;45411;-64
2022/01/16 05:31:44;;;;;;;;;55.00;42.50;;;;;;;;5057902;28;45342;-63
2022/01/16 05:34:11;;;;;;;;;50.25;43.00;;;;;;;;5064670;28;47997;-64
2022/01/16 05:36:36;;;;;;;;;53.75;39.50;;;;;;;;5069483;27;45503;-65
2022/01/16 05:39:02;;;;;;;;;49.25;38.25;;;;;;;;5061490;27;45498;-65
2022/01/16 05:41:27;;;;;;;;;56.25;46.00;;;;;;;;5061282;28;45511;-65
2022/01/16 05:43:52;;;;;;;;;58.25;45.75;;;;;;;;5067015;28;45734;-64
2022/01/16 05:46:18;;;;;;;;;47.25;40.00;;;;;;;;5065312;27;46737;-66
2022/01/16 05:48:43;;;;;;;;;37.25;35.75;;;;;;;;5063545;28;45380;-69
2022/01/16 05:51:08;;;;;;;;;54.25;42.25;;;;;;;;5060520;28;45406;-67
2022/01/16 05:53:34;;;;;;;;;30.75;30.00;;;;;;;;5067908;28;46300;-66
2022/01/16 05:55:59;;;;;;;;;53.00;39.75;;;;;;;;5068003;27;45404;-66
2022/01/16 05:58:24;;;;;;;;;48.25;40.25;;;;;;;;5072262;28;45732;-65
2022/01/16 06:00:50;;;;;;;;;33.75;32.25;;;;;;;;5069946;28;45428;-64
2022/01/16 06:03:15;;;;;;;;;45.25;39.75;;;;;;;;5062491;28;48538;-66
2022/01/16 06:05:40;;;;;;;;;45.75;41.75;;;;;;;;5070188;28;45427;-65
2022/01/16 06:08:12;;;;;;;;;44.25;38.75;;;;;;;;5069554;27;45324;-65
2022/01/16 06:10:37;;;;;;;;;48.75;37.50;;;;;;;;5069991;27;45465;-65
2022/01/16 06:13:04;;;;;;;;;50.25;38.75;;;;;;;;5069662;27;46151;-66
2022/01/16 06:15:30;;;;;;;;;37.25;30.00;;;;;;;;5069500;28;45719;-65
2022/01/16 06:17:56;;;;;;;;;34.75;29.00;;;;;;;;5066325;28;45592;-64
2022/01/16 06:20:21;;;;;;;;;45.75;34.25;;;;;;;;5061528;28;45558;-65
2022/01/16 06:22:46;;;;;;;;;41.00;38.50;;;;;;;;5064859;28;46314;-65
2022/01/16 06:25:12;;;;;;;;;44.50;36.25;;;;;;;;5062751;28;45636;-65
2022/01/16 06:27:37;;;;;;;;;44.50;35.25;;;;;;;;5069930;28;45428;-65
2022/01/16 06:30:04;;;;;;;;;35.75;32.25;;;;;;;;5072473;28;45507;-65
2022/01/16 06:32:29;;;;;;;;;35.25;33.50;;;;;;;;5069625;27;47585;-65
2022/01/16 06:34:54;;;;;;;;;38.00;35.50;;;;;;;;5070484;28;45495;-66
2022/01/16 06:37:20;;;;;;;;;41.00;33.00;;;;;;;;5070797;28;45390;-66
2022/01/16 06:39:45;;;;;;;;;46.25;36.75;;;;;;;;5070470;28;45384;-65
2022/01/16 06:42:10;;;;;;;;;35.75;34.50;;;;;;;;5073609;28;46548;-63
2022/01/16 06:44:35;;;;;;;;;43.00;36.00;;;;;;;;5071648;27;45477;-65
2022/01/16 06:47:01;;;;;;;;;38.00;29.25;;;;;;;;5070067;28;45413;-66
2022/01/16 06:49:26;;;;;;;;;41.00;34.75;;;;;;;;5070073;28;45523;-65
2022/01/16 06:51:52;;;;;;;;;33.50;28.50;;;;;;;;5071399;27;45574;-66
2022/01/16 06:54:17;;;;;;;;;35.75;33.25;;;;;;;;5072314;28;45459;-64
2022/01/16 06:56:42;;;;;;;;;37.25;32.75;;;;;;;;5073068;27;45454;-65
2022/01/16 06:59:07;;;;;;;;;38.75;31.75;;;;;;;;5070405;28;45477;-65
2022/01/16 07:01:32;;;;;;;;;32.75;31.75;;;;;;;;5070923;27;45777;-65
2022/01/16 07:03:58;;;;;;;;;44.00;37.25;;;;;;;;5069604;27;45571;-65
2022/01/16 07:06:23;;;;;;;;;43.50;36.00;;;;;;;;5068999;28;45373;-64
2022/01/16 07:08:49;;;;;;;;;23.75;23.75;;;;;;;;5070604;28;45325;-65
2022/01/16 07:11:15;;;;;;;;;45.25;39.25;;;;;;;;5069417;28;47735;-65
2022/01/16 07:13:40;;;;;;;;;40.25;38.50;;;;;;;;5071176;27;45630;-64
2022/01/16 07:16:05;;;;;;;;;24.25;22.00;;;;;;;;5071670;27;45459;-65
2022/01/16 07:18:30;;;;;;;;;33.75;30.00;;;;;;;;5070441;28;45538;-65
2022/01/16 07:20:56;;;;;;;;;33.25;27.25;;;;;;;;5072976;27;46218;-66
2022/01/16 07:23:21;;;;;;;;;39.00;34.00;;;;;;;;5070495;27;47932;-65
2022/01/16 07:25:47;;;;;;;;;44.00;35.75;;;;;;;;5070341;28;45796;-65
2022/01/16 07:28:13;;;;;;;;;33.00;30.25;;;;;;;;5070728;28;45507;-66
2022/01/16 07:30:38;;;;;;;;;31.50;27.25;;;;;;;;5071229;28;46619;-65
2022/01/16 07:33:04;;;;;;;;;32.75;29.25;;;;;;;;5073110;27;45372;-65
2022/01/16 07:35:29;;;;;;;;;41.00;36.00;;;;;;;;5070736;27;45669;-64
2022/01/16 07:37:55;;;;;;;;;30.25;22.50;;;;;;;;5071026;27;45510;-66
2022/01/16 07:40:21;;;;;;;;;37.25;31.25;;;;;;;;5070610;27;46524;-65
2022/01/16 07:42:46;;;;;;;;;38.50;31.25;;;;;;;;5069400;27;45463;-65
2022/01/16 07:45:12;;;;;;;;;39.50;35.50;;;;;;;;5070824;27;45498;-66
2022/01/16 07:47:37;;;;;;;;;49.75;38.00;;;;;;;;5071612;27;45459;-65
2022/01/16 07:50:02;;;;;;;;;35.25;30.00;;;;;;;;5073739;28;45781;-66
2022/01/16 07:52:27;;;;;;;;;33.50;33.50;;;;;;;;5074327;27;45389;-66
2022/01/16 07:54:53;;;;;;;;;31.50;29.50;;;;;;;;5073355;28;45557;-66
2022/01/16 07:57:18;;;;;;;;;33.50;29.25;;;;;;;;5075149;28;45411;-66
2022/01/16 07:59:43;;;;;;;;;38.25;35.75;;;;;;;;5075621;28;45576;-66
2022/01/16 08:02:08;;;;;;;;;31.75;30.25;;;;;;;;5071205;28;46240;-66
2022/01/16 08:04:34;;;;;;;;;38.25;31.50;;;;;;;;5073241;27;45398;-65
2022/01/16 08:06:59;;;;;;;;;33.50;31.75;;;;;;;;5073847;27;45474;-66
2022/01/16 08:09:24;;;;;;;;;30.50;28.75;;;;;;;;5073778;27;45732;-66
2022/01/16 08:11:50;;;;;;;;;32.00;29.50;;;;;;;;5075874;27;45534;-64
2022/01/16 08:14:15;;;;;;;;;33.00;27.50;;;;;;;;5073734;27;45479;-64
2022/01/16 08:16:40;;;;;;;;;32.50;26.75;;;;;;;;5073705;27;45361;-64
2022/01/16 08:19:05;;;;;;;;;40.50;35.25;;;;;;;;5065076;28;48510;-65
2022/01/16 08:21:31;;;;;;;;;36.50;30.25;;;;;;;;5061273;28;45351;-65
2022/01/16 08:23:56;;;;;;;;;38.00;34.25;;;;;;;;5075831;27;45447;-64
2022/01/16 08:26:21;;;;;;;;;30.00;27.25;;;;;;;;5070526;28;44902;-64
2022/01/16 08:28:47;;;;;;;;;52.00;41.50;;;;;;;;5067221;28;46548;-64
2022/01/16 08:31:12;;;;;;;;;78.00;62.50;;;;;;;;5060737;28;45494;-63
2022/01/16 08:33:38;;;;;;;;;85.50;65.50;;;;;;;;5073800;27;45395;-65
2022/01/16 08:36:03;;;;;;;;;79.75;61.25;;;;;;;;5074509;28;45606;-65
2022/01/16 08:38:30;;;;;;;;;76.75;59.50;;;;;;;;5072748;27;47431;-65
2022/01/16 08:40:55;;;;;;;;;72.00;57.75;;;;;;;;5051780;28;45362;-64
2022/01/16 08:43:20;;;;;;;;;51.25;42.50;;;;;;;;5061873;28;45364;-66
2022/01/16 08:45:46;;;;;;;;;51.00;42.00;;;;;;;;5072701;28;45459;-66
2022/01/16 08:48:11;;;;;;;;;50.50;41.50;;;;;;;;5074262;28;45934;-65
2022/01/16 08:50:37;;;;;;;;;34.25;30.00;;;;;;;;5072408;28;45390;-64
2022/01/16 08:53:03;;;;;;;;;34.00;30.25;;;;;;;;5072595;28;45515;-65
2022/01/16 08:55:28;;;;;;;;;39.75;31.25;;;;;;;;5071922;28;45527;-65
2022/01/16 08:57:54;;;;;;;;;36.75;33.25;;;;;;;;5072140;28;47388;-64
2022/01/16 09:00:19;;;;;;;;;33.75;23.00;;;;;;;;5072017;28;45504;-64
2022/01/16 09:02:44;;;;;;;;;35.00;27.00;;;;;;;;5073536;28;45350;-65
2022/01/16 09:05:09;;;;;;;;;38.00;30.00;;;;;;;;5073261;27;45380;-63
2022/01/16 09:07:35;;;;;;;;;28.25;27.25;;;;;;;;5070077;28;48483;-64
2022/01/16 09:10:01;;;;;;;;;46.25;40.75;;;;;;;;5070535;27;45538;-65
2022/01/16 09:12:27;;;;;;;;;35.50;27.00;;;;;;;;5058799;28;45667;-66
2022/01/16 09:14:52;;;;;;;;;32.00;28.75;;;;;;;;5067007;28;45548;-65
2022/01/16 09:17:18;;;;;;;;;26.25;18.00;;;;;;;;5066995;28;45598;-64
2022/01/16 09:19:43;;;;;;;;;33.00;27.00;;;;;;;;5068892;28;45528;-65
2022/01/16 09:22:08;;;;;;;;;32.25;26.50;;;;;;;;5071485;27;45390;-65
2022/01/16 09:24:34;;;;;;;;;28.00;23.25;;;;;;;;5072849;27;45604;-65
2022/01/16 09:26:59;;;;;;;;;26.00;23.50;;;;;;;;5075203;27;45351;-65
2022/01/16 09:29:24;;;;;;;;;35.75;26.50;;;;;;;;5073210;27;45467;-65
2022/01/16 09:31:50;;;;;;;;;29.00;25.00;;;;;;;;5073414;27;45402;-64
2022/01/16 09:34:15;;;;;;;;;26.25;24.75;;;;;;;;5073244;27;45345;-64
2022/01/16 09:36:40;;;;;;;;;40.50;30.75;;;;;;;;5072475;27;45503;-64
2022/01/16 09:39:05;;;;;;;;;24.00;20.00;;;;;;;;5074557;28;45469;-64
2022/01/16 09:41:31;;;;;;;;;31.50;26.25;;;;;;;;5072218;27;45704;-65
2022/01/16 09:43:56;;;;;;;;;27.00;21.00;;;;;;;;5063694;27;45456;-67
2022/01/16 09:46:21;;;;;;;;;21.50;21.50;;;;;;;;5058067;28;46690;-65
2022/01/16 09:48:47;;;;;;;;;24.00;20.25;;;;;;;;5063809;28;45505;-66
2022/01/16 09:51:12;;;;;;;;;25.00;21.00;;;;;;;;5067097;28;45472;-66
2022/01/16 09:53:40;;;;;;;;;27.00;23.75;;;;;;;;5065224;27;45503;-65
2022/01/16 09:56:06;;;;;;;;;29.75;26.00;;;;;;;;5066075;28;46516;-65
2022/01/16 09:58:31;;;;;;;;;20.75;19.50;;;;;;;;5064494;28;45506;-66
2022/01/16 10:00:56;;;;;;;;;19.75;19.25;;;;;;;;5066685;28;45582;-65
2022/01/16 10:03:35;;;;;;;;;22.25;20.75;;;;;;;;5072735;28;45336;-66
2022/01/16 10:06:09;;;;;;;;;19.25;16.25;;;;;;;;5063663;28;48039;-65
2022/01/16 10:08:36;;;;;;;;;21.50;20.25;;;;;;;;5065289;28;45390;-65
2022/01/16 10:11:18;;;;;;;;;26.25;23.00;;;;;;;;5063786;28;45471;-65
2022/01/16 10:13:58;;;;;;;;;24.25;21.00;;;;;;;;5065476;28;45419;-65
2022/01/16 10:16:31;;;;;;;;;18.50;17.75;;;;;;;;5070279;27;46482;-64
2022/01/16 10:18:56;;;;;;;;;21.75;19.75;;;;;;;;5065623;27;46100;-66
2022/01/16 10:21:36;;;;;;;;;23.75;21.25;;;;;;;;5069417;28;45860;-65
2022/01/16 10:24:14;;;;;;;;;30.00;28.50;;;;;;;;5054920;28;45366;-66
2022/01/16 10:26:39;;;;;;;;;26.50;26.25;;;;;;;;5077352;27;46364;-66
2022/01/16 10:29:04;;;;;;;;;19.25;17.25;;;;;;;;5074738;27;45435;-65
2022/01/16 10:31:29;;;;;;;;;21.75;20.25;;;;;;;;5069448;27;45445;-66
2022/01/16 10:33:55;;;;;;;;;19.50;17.25;;;;;;;;5065742;27;45486;-65
2022/01/16 10:36:30;;;;;;;;;25.00;24.50;;;;;;;;5076560;27;46771;-66
2022/01/16 10:39:04;;;;;;;;;8.00;7.25;;;;;;;;5070176;27;45453;-64
2022/01/16 10:41:29;;;;;;;;;24.00;21.25;;;;;;;;5072044;27;45478;-65
2022/01/16 10:43:54;;;;;;;;;22.25;22.25;;;;;;;;5069228;27;45562;-64
2022/01/16 10:46:24;;;;;;;;;22.25;20.25;;;;;;;;5068934;27;45605;-65
2022/01/16 10:49:09;;;;;;;;;16.75;14.25;;;;;;;;5071288;27;45522;-65
2022/01/16 10:51:36;;;;;;;;;21.50;19.50;;;;;;;;5070426;27;45444;-65
2022/01/16 10:54:21;;;;;;;;;18.25;15.50;;;;;;;;5061203;27;45577;-66
2022/01/16 10:56:46;;;;;;;;;10.50;10.50;;;;;;;;5068627;27;45895;-65
2022/01/16 10:59:24;;;;;;;;;22.50;21.00;;;;;;;;5067283;27;45705;-64
2022/01/16 11:02:18;;;;;;;;;22.75;21.00;;;;;;;;5071095;27;45422;-65
2022/01/16 11:04:44;;;;;;;;;21.75;18.00;;;;;;;;5054205;27;45360;-65
2022/01/16 11:07:10;;;;;;;;;19.75;18.50;;;;;;;;5069324;27;46582;-64
2022/01/16 11:09:36;;;;;;;;;20.00;19.25;;;;;;;;5064637;27;45479;-66
2022/01/16 11:12:01;;;;;;;;;25.25;20.00;;;;;;;;5076688;27;45370;-67
2022/01/16 11:14:27;;;;;;;;;19.00;16.00;;;;;;;;5074229;27;45454;-65
2022/01/16 11:16:54;;;;;;;;;25.00;23.75;;;;;;;;5066879;27;45722;-64
2022/01/16 11:19:21;;;;;;;;;23.75;18.50;;;;;;;;5067646;27;45807;-64
2022/01/16 11:21:49;;;;;;;;;19.25;18.25;;;;;;;;5065481;27;45569;-66
2022/01/16 11:26:40;;;;;;;;;21.75;19.00;;;;;;;;5071179;27;45611;-64
2022/01/16 11:29:06;;;;;;;;;21.00;19.25;;;;;;;;5068703;27;45417;-66
2022/01/16 11:31:31;;;;;;;;;21.75;19.75;;;;;;;;5068281;27;45451;-66
2022/01/16 11:33:56;;;;;;;;;21.25;18.25;;;;;;;;5065576;27;45400;-66
2022/01/16 11:36:23;;;;;;;;;29.50;25.75;;;;;;;;5068343;27;47205;-63
2022/01/16 11:38:54;;;;;;;;;22.50;20.50;;;;;;;;5071474;27;45473;-64
2022/01/16 11:41:26;;;;;;;;;21.50;20.25;;;;;;;;5066763;27;48113;-65
2022/01/16 11:43:52;;;;;;;;;19.25;18.00;;;;;;;;5068592;27;45698;-64
2022/01/16 11:46:18;;;;;;;;;22.25;20.00;;;;;;;;5068962;27;47730;-66
2022/01/16 11:48:50;;;;;;;;;24.50;20.50;;;;;;;;5069353;27;45551;-65
2022/01/16 11:53:58;;;;;;;;;22.50;21.25;;;;;;;;5075249;27;45478;-65
2022/01/16 11:59:10;;;;;;;;;26.75;23.25;;;;;;;;5070407;27;45979;-66
2022/01/16 12:01:42;;;;;;;;;25.25;24.75;;;;;;;;5069078;27;45439;-65
2022/01/16 12:04:27;;;;;;;;;29.00;22.75;;;;;;;;5068842;27;45533;-65
2022/01/16 12:06:52;;;;;;;;;24.50;20.00;;;;;;;;5071222;27;46497;-65
2022/01/16 12:09:37;;;;;;;;;18.75;18.00;;;;;;;;5069091;27;45410;-64
2022/01/16 12:12:03;;;;;;;;;10.25;9.50;;;;;;;;5069293;27;45347;-65
2022/01/16 12:14:47;;;;;;;;;34.75;30.50;;;;;;;;5068117;27;45583;-65
2022/01/16 12:17:31;;;;;;;;;19.50;15.25;;;;;;;;5070672;27;46380;-66
2022/01/16 12:19:57;;;;;;;;;26.00;24.50;;;;;;;;5072152;27;45641;-65
2022/01/16 12:22:42;;;;;;;;;30.00;25.25;;;;;;;;5069155;27;45974;-65
2022/01/16 12:25:08;;;;;;;;;31.25;28.25;;;;;;;;5069849;27;45501;-65
2022/01/16 12:27:37;;;;;;;;;36.75;32.75;;;;;;;;5071910;27;46106;-65
2022/01/16 12:30:09;;;;;;;;;33.00;30.25;;;;;;;;5073559;27;45479;-65
2022/01/16 12:32:54;;;;;;;;;35.25;29.75;;;;;;;;5071014;27;45323;-64
2022/01/16 12:35:38;;;;;;;;;31.75;31.75;;;;;;;;5066630;27;46733;-67
2022/01/16 12:38:14;;;;;;;;;39.25;37.25;;;;;;;;5068195;27;47475;-65
2022/01/16 12:40:42;;;;;;;;;32.50;30.00;;;;;;;;5068970;27;45757;-66
2022/01/16 12:43:10;;;;;;;;;36.00;32.25;;;;;;;;5069660;27;45626;-66
2022/01/16 12:45:36;;;;;;;;;37.00;31.75;;;;;;;;5070135;27;45462;-66
2022/01/16 12:48:02;;;;;;;;;37.00;34.50;;;;;;;;5072938;27;47480;-66
2022/01/16 12:50:30;;;;;;;;;34.00;34.00;;;;;;;;5071673;27;45486;-66
2022/01/16 12:52:55;;;;;;;;;29.75;26.75;;;;;;;;5072280;27;45361;-66
2022/01/16 12:55:25;;;;;;;;;29.75;27.50;;;;;;;;5069172;27;45323;-67
2022/01/16 12:57:51;;;;;;;;;32.00;31.00;;;;;;;;5064645;27;45977;-66
2022/01/16 13:00:17;;;;;;;;;34.00;30.25;;;;;;;;5065997;27;45361;-65
2022/01/16 13:02:42;;;;;;;;;21.75;21.75;;;;;;;;5062196;27;45624;-66
2022/01/16 13:05:08;;;;;;;;;26.00;25.00;;;;;;;;5071513;27;45477;-64
2022/01/16 13:07:34;;;;;;;;;35.50;29.00;;;;;;;;5064251;27;46749;-65
2022/01/16 13:10:00;;;;;;;;;40.50;33.75;;;;;;;;5065667;27;45799;-64
2022/01/16 13:12:26;;;;;;;;;23.25;20.00;;;;;;;;5072318;27;45444;-66
2022/01/16 13:14:52;;;;;;;;;30.50;28.00;;;;;;;;5083227;27;45517;-66
2022/01/16 13:17:18;;;;;;;;;36.25;34.75;;;;;;;;5070933;27;45544;-66
2022/01/16 13:19:52;;;;;;;;;34.50;33.25;;;;;;;;5063822;27;45458;-66
2022/01/16 13:22:20;;;;;;;;;28.25;26.25;;;;;;;;5066040;27;46077;-65
2022/01/16 13:24:46;;;;;;;;;29.25;28.25;;;;;;;;5064957;27;45355;-64
2022/01/16 13:27:13;;;;;;;;;33.25;29.50;;;;;;;;5067236;27;48098;-65
2022/01/16 13:29:41;;;;;;;;;37.75;32.75;;;;;;;;5063691;27;46216;-65
2022/01/16 13:32:08;;;;;;;;;25.75;24.50;;;;;;;;5066004;27;45594;-66
2022/01/16 13:34:35;;;;;;;;;33.50;33.25;;;;;;;;5069220;27;45804;-63
2022/01/16 13:37:01;;;;;;;;;36.75;31.25;;;;;;;;5069957;27;45880;-66
2022/01/16 13:39:33;;;;;;;;;28.75;25.50;;;;;;;;5071706;27;45591;-66
2022/01/16 13:42:12;;;;;;;;;31.50;28.25;;;;;;;;5073716;27;45488;-64
2022/01/16 13:44:37;;;;;;;;;32.50;32.25;;;;;;;;5068496;27;45487;-65
2022/01/16 13:47:02;;;;;;;;;28.25;27.25;;;;;;;;5067964;27;48083;-65
2022/01/16 13:49:27;;;;;;;;;35.25;29.75;;;;;;;;5066493;27;45496;-66
2022/01/16 13:51:56;;;;;;;;;34.00;31.75;;;;;;;;5069790;27;45678;-65
2022/01/16 13:54:27;;;;;;;;;35.75;33.25;;;;;;;;5064893;27;45534;-64
2022/01/16 13:56:53;;;;;;;;;34.75;32.25;;;;;;;;5063118;27;46241;-66
2022/01/16 13:59:19;;;;;;;;;39.50;36.75;;;;;;;;5060380;27;45659;-64
2022/01/16 14:01:50;;;;;;;;;32.00;30.25;;;;;;;;5067410;27;45978;-66
2022/01/16 14:04:16;;;;;;;;;40.00;35.75;;;;;;;;5063930;27;45887;-66
2022/01/16 14:07:01;;;;;;;;;42.00;38.25;;;;;;;;5064396;27;46479;-66
2022/01/16 14:09:28;;;;;;;;;44.75;41.00;;;;;;;;5064845;27;45458;-66
2022/01/16 14:11:55;;;;;;;;;38.00;36.00;;;;;;;;5070539;27;45471;-66
2022/01/16 14:14:21;;;;;;;;;59.25;47.00;;;;;;;;5069390;27;45548;-65
2022/01/16 14:19:35;;;;;;;;;44.50;39.75;;;;;;;;5066603;27;45492;-68
2022/01/16 14:22:07;;;;;;;;;50.00;40.75;;;;;;;;5061422;27;47038;-67
2022/01/16 14:24:32;;;;;;;;;35.50;34.50;;;;;;;;5069355;27;45618;-67
2022/01/16 14:27:00;;;;;;;;;34.75;34.75;;;;;;;;5059135;27;47847;-67
2022/01/16 14:29:26;;;;;;;;;39.00;37.50;;;;;;;;5060638;27;45528;-65
2022/01/16 14:31:53;;;;;;;;;34.00;32.75;;;;;;;;5070067;27;45396;-65
2022/01/16 14:34:18;;;;;;;;;30.25;27.50;;;;;;;;5077141;27;45617;-66
2022/01/16 14:36:44;;;;;;;;;36.50;33.25;;;;;;;;5064837;27;45758;-65
2022/01/16 14:39:10;;;;;;;;;32.00;31.00;;;;;;;;5068703;27;46266;-67
2022/01/16 14:41:37;;;;;;;;;34.25;30.75;;;;;;;;5061870;27;45410;-68
2022/01/16 14:44:03;;;;;;;;;28.75;28.75;;;;;;;;5069973;27;45684;-68
2022/01/16 14:46:29;;;;;;;;;35.50;31.50;;;;;;;;5070529;27;45927;-66
2022/01/16 14:48:55;;;;;;;;;38.50;33.50;;;;;;;;5067319;27;45392;-67
2022/01/16 14:51:20;;;;;;;;;38.50;36.00;;;;;;;;5076286;27;45930;-67
2022/01/16 14:53:46;;;;;;;;;45.50;37.75;;;;;;;;5063862;27;45424;-67
2022/01/16 14:56:12;;;;;;;;;35.50;33.00;;;;;;;;5069269;27;45456;-68
2022/01/16 14:58:37;;;;;;;;;31.75;28.00;;;;;;;;5063617;27;45613;-67
2022/01/16 15:01:02;;;;;;;;;36.75;29.75;;;;;;;;5071003;27;45573;-66